createdAt,value
2022-11-24T00:02:56.604Z,89.36
2022-11-24T00:06:12.013Z,88.29
2022-11-24T00:09:17.319Z,88.85
2022-11-24T00:12:20.134Z,90.02
2022-11-24T00:15:22.671Z,89.59
2022-11-24T00:18:24.692Z,88.63
2022-11-24T00:21:28.464Z,88.20
2022-11-24T00:24:32.428Z,87.83
2022-11-24T00:27:35.391Z,88.33
2022-11-24T00:30:39.269Z,88.08
2022-11-24T00:33:41.466Z,87.69
2022-11-24T00:36:44.223Z,87.87
2022-11-24T00:39:46.408Z,87.80
2022-11-24T00:42:48.632Z,87.65
2022-11-24T00:45:50.909Z,87.11
2022-11-24T00:48:54.095Z,87.30
2022-11-24T00:51:56.992Z,87.32
2022-11-24T00:54:59.365Z,87.05
2022-11-24T00:58:01.583Z,87.42
2022-11-24T01:01:25.819Z,87.92
2022-11-24T01:04:28.432Z,88.24
2022-11-24T01:07:31.202Z,87.38
2022-11-24T01:10:33.720Z,87.29
2022-11-24T01:13:35.907Z,86.63
2022-11-24T01:16:38.959Z,86.76
2022-11-24T01:19:41.399Z,86.74
2022-11-24T01:22:47.159Z,86.23
2022-11-24T01:25:49.748Z,86.67
2022-11-24T01:28:56.573Z,85.75
2022-11-24T01:31:58.636Z,85.34
2022-11-24T01:35:01.043Z,84.62
2022-11-24T01:38:03.531Z,84.39
2022-11-24T01:41:22.739Z,85.16
2022-11-24T01:44:31.774Z,85.59
2022-11-24T01:47:43.147Z,85.34
2022-11-24T01:50:49.818Z,85.68
2022-11-24T01:54:01.159Z,86.26
2022-11-24T01:57:13.389Z,85.73
2022-11-24T02:00:20.474Z,86.60
2022-11-24T02:03:30.856Z,85.86
2022-11-24T02:07:25.088Z,86.05
2022-11-24T02:10:30.007Z,85.85
2022-11-24T02:17:41.375Z,84.93
2022-11-24T02:20:45.878Z,84.76
2022-11-24T02:24:17.022Z,86.15
2022-11-24T02:27:23.240Z,84.82
2022-11-24T02:30:25.360Z,85.49
2022-11-24T02:33:27.848Z,85.17
2022-11-24T02:36:30.668Z,84.75
2022-11-24T02:39:32.838Z,85.56
2022-11-24T02:42:43.319Z,85.37
2022-11-24T02:45:48.401Z,83.99
2022-11-24T02:52:18.608Z,83.16
2022-11-24T03:08:56.198Z,83.08
2022-11-24T03:17:00.997Z,82.54
2022-11-24T03:20:28.411Z,83.39
2022-11-24T03:24:06.253Z,84.02
2022-11-24T04:26:47.890Z,83.17
2022-11-24T04:34:57.447Z,83.30
2022-11-24T04:38:03.120Z,84.50
2022-11-24T04:41:05.753Z,85.01
2022-11-24T04:44:07.814Z,85.89
2022-11-24T04:47:21.059Z,86.74
2022-11-24T04:50:24.799Z,90.72
2022-11-24T04:53:30.193Z,92.14
2022-11-24T04:57:31.030Z,92.28
2022-11-24T05:00:33.150Z,93.01
2022-11-24T05:03:36.685Z,93.36
2022-11-24T05:06:39.087Z,92.66
2022-11-24T05:10:00.865Z,91.99
2022-11-24T05:13:13.749Z,99.05
2022-11-24T05:16:15.994Z,100.00
2022-11-24T05:19:19.130Z,100.00
2022-11-24T05:22:21.056Z,100.00
2022-11-24T05:25:23.436Z,100.00
2022-11-24T05:28:25.729Z,100.00
2022-11-24T05:31:28.086Z,100.00
2022-11-24T05:34:36.593Z,100.00
2022-11-24T05:41:05.727Z,100.00
2022-11-24T05:44:07.977Z,100.00
2022-11-24T05:51:39.618Z,100.00
2022-11-24T05:54:50.438Z,100.00
2022-11-24T05:58:00.489Z,100.00
2022-11-24T06:01:06.370Z,100.00
2022-11-24T06:04:08.424Z,100.00
2022-11-24T06:07:12.743Z,100.00
2022-11-24T06:10:18.513Z,100.00
2022-11-24T06:13:22.611Z,100.00
2022-11-24T06:16:24.972Z,100.00
2022-11-24T06:19:27.050Z,100.00
2022-11-24T06:22:29.352Z,100.00
2022-11-24T06:25:31.385Z,100.00
2022-11-24T06:28:33.455Z,100.00
2022-11-24T06:31:35.799Z,100.00
2022-11-24T06:34:38.038Z,100.00
2022-11-24T06:37:41.975Z,100.00
2022-11-24T06:40:44.145Z,100.00
2022-11-24T06:43:53.896Z,100.00
2022-11-24T06:46:59.859Z,100.00
2022-11-24T06:50:02.281Z,100.00
2022-11-24T06:53:04.460Z,100.00
2022-11-24T06:56:15.344Z,100.00
2022-11-24T06:59:21.221Z,100.00
2022-11-24T07:02:24.675Z,100.00
2022-11-24T07:05:27.475Z,100.00
2022-11-24T07:08:29.615Z,100.00
2022-11-24T07:11:31.870Z,100.00
2022-11-24T07:14:34.098Z,100.00
2022-11-24T07:17:38.113Z,100.00
2022-11-24T07:20:40.444Z,100.00
2022-11-24T07:23:42.604Z,100.00
2022-11-24T07:26:45.018Z,99.22
2022-11-24T07:29:47.291Z,100.00
2022-11-24T07:32:49.376Z,100.00
2022-11-24T07:35:52.413Z,100.00
2022-11-24T07:38:54.431Z,100.00
2022-11-24T07:41:56.479Z,100.00
2022-11-24T07:44:58.463Z,100.00
2022-11-24T07:48:00.480Z,99.24
2022-11-24T07:51:04.696Z,96.25
2022-11-24T07:54:07.741Z,93.87
2022-11-24T07:57:09.965Z,92.68
2022-11-24T08:00:13.058Z,91.16
2022-11-24T08:03:15.917Z,91.16
2022-11-24T08:06:28.507Z,91.07
2022-11-24T08:09:31.058Z,90.31
2022-11-24T08:12:34.402Z,89.20
2022-11-24T08:15:37.675Z,88.81
2022-11-24T08:18:39.828Z,89.97
2022-11-24T08:21:41.933Z,89.53
2022-11-24T08:24:48.352Z,90.10
2022-11-24T08:27:50.395Z,90.22
2022-11-24T08:30:52.695Z,89.58
2022-11-24T08:33:56.277Z,89.35
2022-11-24T08:37:00.630Z,89.51
2022-11-24T08:40:02.661Z,89.94
2022-11-24T08:43:04.807Z,89.79
2022-11-24T08:46:10.450Z,89.55
2022-11-24T08:49:14.801Z,88.20
2022-11-24T08:52:17.584Z,87.65
2022-11-24T08:55:20.005Z,86.75
2022-11-24T08:58:22.315Z,87.43
2022-11-24T09:01:26.767Z,87.36
2022-11-24T09:04:29.076Z,87.23
2022-11-24T09:07:31.168Z,86.48
2022-11-24T09:10:33.476Z,87.43
2022-11-24T09:13:36.526Z,87.60
2022-11-24T09:16:38.736Z,88.67
2022-11-24T09:19:40.754Z,88.73
2022-11-24T09:22:43.582Z,90.34
2022-11-24T09:25:45.701Z,87.78
2022-11-24T09:28:48.513Z,89.55
2022-11-24T09:31:51.018Z,90.54
2022-11-24T09:34:52.960Z,90.57
2022-11-24T09:37:55.035Z,91.03
2022-11-24T09:41:26.089Z,92.18
2022-11-24T09:44:49.614Z,93.79
2022-11-24T09:47:59.581Z,100.00
2022-11-24T09:51:05.319Z,99.33
2022-11-24T09:54:21.852Z,95.77
2022-11-24T09:57:27.063Z,90.66
2022-11-24T10:00:30.386Z,88.75
2022-11-24T10:03:42.113Z,86.03
2022-11-24T10:07:19.305Z,83.68
2022-11-24T10:10:29.366Z,79.67
2022-11-24T10:13:31.268Z,74.84
2022-11-24T10:16:48.231Z,73.42
2022-11-24T10:19:58.160Z,71.09
2022-11-24T10:23:18.854Z,80.84
2022-11-24T10:26:37.082Z,85.14
2022-11-24T10:29:42.548Z,87.15
2022-11-24T10:32:48.342Z,90.03
2022-11-24T10:35:53.773Z,90.54
2022-11-24T10:39:28.965Z,92.09
2022-11-24T10:42:35.474Z,93.72
2022-11-24T10:45:40.231Z,93.82
2022-11-24T10:48:49.905Z,94.60
2022-11-24T10:52:15.317Z,94.99
2022-11-24T10:55:17.497Z,94.89
2022-11-24T10:58:25.063Z,95.56
2022-11-24T11:01:37.552Z,95.64
2022-11-24T11:04:39.687Z,94.99
2022-11-24T11:07:41.788Z,95.12
2022-11-24T11:10:45.527Z,95.25
2022-11-24T11:13:56.847Z,95.31
2022-11-24T11:17:03.011Z,94.89
2022-11-24T11:20:32.181Z,94.83
2022-11-24T11:23:36.118Z,94.99
2022-11-24T11:26:39.462Z,94.87
2022-11-24T11:36:27.397Z,97.86
2022-11-24T11:39:35.843Z,100.00
2022-11-24T11:43:05.989Z,100.00
2022-11-24T11:46:08.125Z,99.82
2022-11-24T11:49:13.759Z,100.00
2022-11-24T11:52:43.789Z,98.65
2022-11-24T11:56:14.462Z,100.00
2022-11-24T11:59:19.095Z,100.00
2022-11-24T12:02:56.443Z,100.00
2022-11-24T12:06:16.697Z,100.00
2022-11-24T12:09:27.833Z,100.00
2022-11-24T12:13:06.721Z,100.00
2022-11-24T12:16:30.192Z,100.00
2022-11-24T12:19:46.895Z,100.00
2022-11-24T12:23:18.155Z,100.00
2022-11-24T12:26:57.818Z,100.00
2022-11-24T12:30:13.557Z,100.00
2022-11-24T12:33:31.296Z,100.00
2022-11-24T12:36:49.915Z,100.00
2022-11-24T12:40:31.434Z,100.00
2022-11-24T12:43:39.805Z,100.00
2022-11-24T12:47:17.983Z,100.00
2022-11-24T12:50:24.610Z,100.00
2022-11-24T12:53:34.093Z,100.00
2022-11-24T12:57:00.169Z,97.71
2022-11-24T13:00:07.286Z,93.80
2022-11-24T13:03:30.358Z,90.96
2022-11-24T13:06:47.468Z,87.06
2022-11-24T13:10:54.683Z,85.11
2022-11-24T13:13:59.835Z,82.26
2022-11-24T13:17:36.330Z,80.50
2022-11-24T13:20:41.767Z,74.28
2022-11-24T13:23:44.664Z,70.72
2022-11-24T13:26:52.268Z,66.79
2022-11-24T13:29:55.485Z,65.08
2022-11-24T13:33:27.317Z,65.04
2022-11-24T13:36:34.644Z,62.89
2022-11-24T13:39:53.228Z,60.49
2022-11-24T13:42:58.479Z,57.58
2022-11-24T13:46:01.851Z,57.33
2022-11-24T13:49:14.491Z,62.04
2022-11-24T13:52:36.843Z,64.61
2022-11-24T13:55:41.158Z,61.84
2022-11-24T13:58:56.722Z,59.36
2022-11-24T14:01:59.187Z,58.04
2022-11-24T14:05:01.895Z,56.65
2022-11-24T14:08:07.275Z,57.59
2022-11-24T14:11:16.934Z,58.46
2022-11-24T14:14:21.245Z,58.77
2022-11-24T14:17:29.884Z,62.11
2022-11-24T14:20:33.258Z,60.39
2022-11-24T14:23:42.309Z,59.32
2022-11-24T14:26:47.132Z,60.18
2022-11-24T14:30:15.529Z,59.34
2022-11-24T14:33:20.331Z,58.64
2022-11-24T14:36:22.356Z,60.46
2022-11-24T14:39:26.731Z,59.77
2022-11-24T14:42:28.778Z,60.31
2022-11-24T14:45:37.771Z,59.97
2022-11-24T14:48:50.016Z,60.19
2022-11-24T14:52:04.194Z,61.79
2022-11-24T14:55:22.454Z,63.82
2022-11-24T14:58:37.695Z,67.40
2022-11-24T15:01:42.875Z,68.45
2022-11-24T15:05:03.590Z,72.38
2022-11-24T15:08:06.309Z,76.29
2022-11-24T15:11:08.611Z,73.97
2022-11-24T15:14:46.173Z,75.11
2022-11-24T15:17:52.508Z,70.56
2022-11-24T15:20:55.116Z,72.03
2022-11-24T15:24:17.826Z,70.64
2022-11-24T15:27:19.899Z,68.65
2022-11-24T15:30:21.895Z,70.15
2022-11-24T15:33:25.004Z,70.31
2022-11-24T15:36:27.868Z,77.42
2022-11-24T15:39:29.949Z,81.04
2022-11-24T15:42:32.000Z,81.61
2022-11-24T15:45:34.825Z,84.35
2022-11-24T15:48:38.784Z,83.79
2022-11-24T15:51:46.081Z,84.75
2022-11-24T15:54:54.194Z,84.99
2022-11-24T15:57:56.388Z,86.13
2022-11-24T16:00:58.679Z,85.93
2022-11-24T16:04:01.884Z,86.34
2022-11-24T16:07:07.004Z,86.96
2022-11-24T16:10:24.007Z,85.63
2022-11-24T16:13:26.142Z,85.69
2022-11-24T16:16:28.284Z,86.51
2022-11-24T16:19:37.343Z,86.42
2022-11-24T16:22:42.692Z,84.94
2022-11-24T16:25:44.737Z,85.71
2022-11-24T16:28:46.839Z,86.48
2022-11-24T16:31:52.731Z,86.87
2022-11-24T16:34:54.889Z,87.80
2022-11-24T16:37:57.325Z,87.98
2022-11-24T16:41:02.937Z,87.67
2022-11-24T16:44:05.121Z,88.67
2022-11-24T16:47:11.949Z,89.21
2022-11-24T16:50:14.323Z,87.77
2022-11-24T16:53:16.495Z,87.49
2022-11-24T16:56:18.611Z,88.25
2022-11-24T16:59:20.665Z,88.44
2022-11-24T17:02:23.000Z,88.86
2022-11-24T17:05:25.810Z,88.68
2022-11-24T17:08:34.035Z,88.73
2022-11-24T17:11:36.426Z,88.60
2022-11-24T17:14:38.577Z,89.76
2022-11-24T17:18:01.312Z,89.41
2022-11-24T17:21:09.683Z,89.66
2022-11-24T17:24:17.631Z,89.13
2022-11-24T17:27:19.979Z,89.26
2022-11-24T17:30:22.384Z,89.15
2022-11-24T17:33:24.619Z,91.37
2022-11-24T17:36:27.583Z,95.22
2022-11-24T17:39:29.943Z,97.89
2022-11-24T17:42:31.944Z,100.00
2022-11-24T17:45:34.139Z,100.00
2022-11-24T17:48:36.883Z,100.00
2022-11-24T17:51:39.009Z,100.00
2022-11-24T17:54:56.566Z,100.00
2022-11-24T17:57:59.410Z,100.00
2022-11-24T18:01:01.934Z,100.00
2022-11-24T18:04:04.406Z,100.00
2022-11-24T18:07:06.489Z,100.00
2022-11-24T18:10:08.957Z,100.00
2022-11-24T18:13:27.434Z,100.00
2022-11-24T18:16:35.405Z,100.00
2022-11-24T18:19:37.703Z,100.00
2022-11-24T18:23:04.429Z,100.00
2022-11-24T18:26:05.348Z,89.64
2022-11-24T18:29:08.139Z,92.34
2022-11-24T18:32:10.362Z,94.00
2022-11-24T18:35:12.520Z,95.28
2022-11-24T18:38:14.653Z,96.53
2022-11-24T18:41:18.154Z,97.60
2022-11-24T18:44:20.751Z,98.65
2022-11-24T18:47:25.683Z,97.17
2022-11-24T18:50:27.781Z,97.81
2022-11-24T18:53:29.942Z,98.24
2022-11-24T18:56:34.542Z,97.38
2022-11-24T18:59:37.297Z,97.82
2022-11-24T19:02:39.904Z,96.73
2022-11-24T19:05:43.371Z,96.34
2022-11-24T19:08:45.897Z,94.26
2022-11-24T19:11:48.059Z,93.48
2022-11-24T19:14:50.310Z,94.10
2022-11-24T19:17:52.327Z,94.39
2022-11-24T19:20:58.040Z,93.34
2022-11-24T19:24:04.975Z,92.61
2022-11-24T19:27:10.996Z,92.79
2022-11-24T19:30:13.284Z,92.98
2022-11-24T19:33:15.764Z,93.04
2022-11-24T19:36:20.573Z,92.66
2022-11-24T19:39:23.293Z,92.37
2022-11-24T19:42:27.102Z,92.68
2022-11-24T19:45:29.506Z,92.62
2022-11-24T19:53:03.555Z,92.31
2022-11-24T19:56:14.680Z,92.54
2022-11-24T19:59:20.713Z,92.27
2022-11-24T20:02:31.990Z,91.33
2022-11-24T20:05:34.342Z,91.54
2022-11-24T20:08:38.182Z,91.22
2022-11-24T20:11:41.210Z,91.51
2022-11-24T20:14:44.211Z,91.08
2022-11-24T20:17:46.770Z,90.94
2022-11-24T20:20:49.076Z,91.36
2022-11-24T20:23:55.486Z,91.80
2022-11-24T20:27:00.823Z,90.79
2022-11-24T20:30:03.425Z,91.03
2022-11-24T20:33:09.726Z,90.91
2022-11-24T20:36:14.184Z,89.08
2022-11-24T20:39:36.803Z,89.32
2022-11-24T20:42:41.412Z,88.79
2022-11-24T20:45:43.575Z,88.66
2022-11-24T20:48:46.693Z,89.19
2022-11-24T20:51:49.042Z,88.22
2022-11-24T20:54:51.154Z,88.71
2022-11-24T20:57:53.229Z,88.26
2022-11-24T21:00:55.582Z,89.03
2022-11-24T21:03:59.828Z,88.21
2022-11-24T21:07:02.111Z,87.96
2022-11-24T21:10:04.687Z,87.81
2022-11-24T21:13:07.115Z,88.43
2022-11-24T21:16:19.953Z,88.72
2022-11-24T21:19:24.179Z,88.17
2022-11-24T21:22:27.267Z,89.04
2022-11-24T21:25:30.868Z,88.82
2022-11-24T21:28:33.878Z,89.06
2022-11-24T21:31:39.735Z,89.14
2022-11-24T21:34:42.276Z,89.97
2022-11-24T21:37:44.571Z,90.53
2022-11-24T21:40:50.297Z,90.27
2022-11-24T21:43:55.611Z,89.90
2022-11-24T21:47:01.479Z,90.61
2022-11-24T21:50:09.187Z,90.77
2022-11-24T21:53:11.810Z,90.40
2022-11-24T21:56:18.175Z,90.56
2022-11-24T21:59:22.609Z,90.61
2022-11-24T22:02:26.454Z,89.82
2022-11-24T22:05:44.112Z,90.75
2022-11-24T22:08:49.095Z,90.83
2022-11-24T22:11:54.138Z,90.96
2022-11-24T22:14:56.568Z,92.08
2022-11-24T22:17:58.679Z,91.64
2022-11-24T22:21:03.026Z,92.62
2022-11-24T22:24:05.385Z,92.55
2022-11-24T22:27:07.572Z,92.91
2022-11-24T22:30:10.781Z,93.76
2022-11-24T22:33:14.034Z,93.57
2022-11-24T22:36:18.804Z,93.00
2022-11-24T22:39:20.803Z,92.04
2022-11-24T22:42:23.002Z,92.99
2022-11-24T22:45:25.094Z,92.84
2022-11-24T22:48:29.114Z,92.74
2022-11-24T22:51:34.203Z,92.63
2022-11-24T22:54:36.701Z,92.97
2022-11-24T22:57:39.063Z,92.45
2022-11-24T23:00:54.287Z,93.20
2022-11-24T23:04:00.996Z,94.02
2022-11-24T23:07:03.821Z,94.48
2022-11-24T23:10:06.869Z,94.39
2022-11-24T23:13:10.848Z,94.02
2022-11-24T23:16:15.691Z,93.33
2022-11-24T23:19:18.832Z,93.26
2022-11-24T23:22:21.220Z,93.56
2022-11-24T23:25:24.319Z,93.61
2022-11-24T23:28:34.712Z,92.49
2022-11-24T23:31:40.073Z,92.16
2022-11-24T23:34:43.035Z,92.29
2022-11-24T23:38:06.976Z,92.20
2022-11-24T23:41:12.819Z,92.26
2022-11-24T23:44:15.619Z,91.94
2022-11-24T23:47:18.974Z,91.95
2022-11-24T23:50:23.319Z,92.10
2022-11-24T23:53:28.805Z,92.26
2022-11-24T23:56:33.358Z,92.86
2022-11-24T23:59:35.732Z,92.09
